createdAt,value
2022-11-29T00:01:32.383Z,100674.81
2022-11-29T00:04:01.146Z,100679.31
2022-11-29T00:06:29.660Z,100682.88
2022-11-29T00:08:58.068Z,100688.09
2022-11-29T00:11:26.916Z,100677.69
2022-11-29T00:13:53.318Z,100674.97
2022-11-29T00:16:19.832Z,100668.81
2022-11-29T00:18:48.834Z,100681.03
2022-11-29T00:21:16.640Z,100676.59
2022-11-29T00:23:43.094Z,100675.66
2022-11-29T00:26:09.589Z,100677.31
2022-11-29T00:28:36.993Z,100675.88
2022-11-29T00:31:13.983Z,100675.91
2022-11-29T00:33:40.569Z,100680.56
2022-11-29T00:36:07.747Z,100682.78
2022-11-29T00:38:35.610Z,100672.59
2022-11-29T00:41:02.046Z,100683.31
2022-11-29T00:43:28.513Z,100678.53
2022-11-29T00:45:55.319Z,100676.06
2022-11-29T00:48:22.005Z,100678.94
2022-11-29T00:50:48.615Z,100672.84
2022-11-29T00:53:15.188Z,100672.81
2022-11-29T00:55:44.127Z,100675.88
2022-11-29T00:58:10.965Z,100674.50
2022-11-29T01:00:37.521Z,100679.47
2022-11-29T01:03:04.066Z,100679.22
2022-11-29T01:05:30.795Z,100677.31
2022-11-29T01:07:57.388Z,100671.22
2022-11-29T01:10:24.221Z,100678.25
2022-11-29T01:12:51.984Z,100690.09
2022-11-29T01:15:19.495Z,100678.41
2022-11-29T01:17:45.912Z,100688.28
2022-11-29T01:20:13.522Z,100689.69
2022-11-29T01:22:40.445Z,100695.22
2022-11-29T01:25:08.134Z,100691.06
2022-11-29T01:27:35.013Z,100700.19
2022-11-29T01:30:04.153Z,100692.19
2022-11-29T01:32:31.116Z,100689.97
2022-11-29T01:34:57.657Z,100692.19
2022-11-29T01:37:24.194Z,100695.47
2022-11-29T01:39:50.681Z,100697.69
2022-11-29T01:42:17.082Z,100701.53
2022-11-29T01:45:19.391Z,100697.69
2022-11-29T01:47:47.515Z,100706.25
2022-11-29T01:50:14.510Z,100701.03
2022-11-29T01:52:42.074Z,100704.03
2022-11-29T01:55:09.381Z,100698.25
2022-11-29T01:57:39.418Z,100699.38
2022-11-29T02:00:09.821Z,100693.03
2022-11-29T02:02:42.779Z,100699.38
2022-11-29T02:05:12.177Z,100691.06
2022-11-29T02:07:38.810Z,100695.19
2022-11-29T02:10:07.510Z,100702.09
2022-11-29T02:12:42.735Z,100705.84
2022-11-29T02:15:21.571Z,100699.31
2022-11-29T02:18:05.069Z,100700.47
2022-11-29T02:21:02.653Z,100695.47
2022-11-29T02:23:58.974Z,100696.59
2022-11-29T02:26:54.597Z,100701.03
2022-11-29T02:29:46.841Z,100704.59
2022-11-29T02:32:48.801Z,100704.63
2022-11-29T02:35:30.462Z,100696.88
2022-11-29T02:38:13.688Z,100706.78
2022-11-29T02:40:56.162Z,100710.34
2022-11-29T02:43:42.347Z,100712.03
2022-11-29T02:46:26.300Z,100712.59
2022-11-29T02:49:04.541Z,100705.97
2022-11-29T02:51:41.126Z,100715.38
2022-11-29T02:54:15.119Z,100712.84
2022-11-29T02:56:46.583Z,100713.16
2022-11-29T02:59:21.365Z,100717.00
2022-11-29T03:01:57.799Z,100725.56
2022-11-29T03:04:32.610Z,100723.88
2022-11-29T03:07:05.986Z,100728.59
2022-11-29T03:09:38.815Z,100727.47
2022-11-29T03:12:18.348Z,100729.41
2022-11-29T03:14:57.480Z,100727.38
2022-11-29T03:17:32.510Z,100736.75
2022-11-29T03:20:21.897Z,100729.47
2022-11-29T03:23:06.930Z,100735.97
2022-11-29T03:25:38.706Z,100734.66
2022-11-29T03:28:11.261Z,100729.94
2022-11-29T03:30:42.782Z,100732.72
2022-11-29T03:33:16.251Z,100739.31
2022-11-29T03:35:55.297Z,100744.00
2022-11-29T03:38:28.230Z,100747.59
2022-11-29T03:41:04.101Z,100748.91
2022-11-29T03:43:39.255Z,100744.28
2022-11-29T03:46:10.924Z,100758.34
2022-11-29T03:48:43.983Z,100750.91
2022-11-29T03:51:16.085Z,100746.53
2022-11-29T03:53:49.060Z,100749.00
2022-11-29T03:56:27.459Z,100758.66
2022-11-29T03:59:03.754Z,100764.94
2022-11-29T04:02:02.340Z,100769.91
2022-11-29T04:05:07.260Z,100752.25
2022-11-29T04:07:49.588Z,100758.34
2022-11-29T04:10:35.545Z,100768.56
2022-11-29T04:13:33.930Z,100772.94
2022-11-29T04:16:26.718Z,100770.94
2022-11-29T04:19:23.630Z,100773.50
2022-11-29T04:22:11.198Z,100777.00
2022-11-29T04:25:36.102Z,100777.59
2022-11-29T04:28:25.219Z,100776.47
2022-11-29T04:31:00.799Z,100775.59
2022-11-29T04:33:57.028Z,100777.53
2022-11-29T04:36:41.950Z,100780.53
2022-11-29T04:39:26.329Z,100782.81
2022-11-29T04:42:14.652Z,100786.31
2022-11-29T04:44:55.322Z,100795.94
2022-11-29T04:47:43.949Z,100791.56
2022-11-29T04:50:25.455Z,100799.00
2022-11-29T04:53:15.223Z,100791.31
2022-11-29T04:55:50.999Z,100799.09
2022-11-29T04:58:29.873Z,100810.84
2022-11-29T05:01:03.894Z,100804.47
2022-11-29T05:03:39.593Z,100813.00
2022-11-29T05:06:19.613Z,100813.97
2022-11-29T05:08:51.207Z,100813.72
2022-11-29T05:11:26.992Z,100811.94
2022-11-29T05:14:00.945Z,100818.28
2022-11-29T05:16:51.233Z,100819.31
2022-11-29T05:19:35.244Z,100822.44
2022-11-29T05:22:06.135Z,100826.03
2022-11-29T05:24:46.843Z,100829.81
2022-11-29T05:27:22.996Z,100828.47
2022-11-29T05:29:58.264Z,100824.00
2022-11-29T05:32:30.839Z,100838.53
2022-11-29T05:35:13.628Z,100837.72
2022-11-29T05:37:45.783Z,100839.09
2022-11-29T05:40:35.767Z,100846.44
2022-11-29T05:43:12.593Z,100851.44
2022-11-29T05:45:47.648Z,100855.47
2022-11-29T05:48:24.275Z,100853.69
2022-11-29T05:50:59.607Z,100861.88
2022-11-29T05:53:33.951Z,100865.25
2022-11-29T05:56:09.186Z,100868.53
2022-11-29T05:58:47.433Z,100875.69
2022-11-29T06:01:21.644Z,100868.56
2022-11-29T06:03:57.951Z,100876.72
2022-11-29T06:06:32.652Z,100877.56
2022-11-29T06:09:04.806Z,100874.38
2022-11-29T06:11:36.147Z,100880.28
2022-11-29T06:14:07.444Z,100873.03
2022-11-29T06:17:00.436Z,100870.84
2022-11-29T06:19:52.933Z,100880.88
2022-11-29T06:22:39.433Z,100884.75
2022-11-29T06:25:27.683Z,100887.47
2022-11-29T06:28:08.973Z,100888.75
2022-11-29T06:30:47.955Z,100886.28
2022-11-29T06:33:22.504Z,100887.34
2022-11-29T06:35:57.522Z,100895.75
2022-11-29T06:38:27.154Z,100892.44
2022-11-29T06:41:00.136Z,100896.03
2022-11-29T06:43:29.365Z,100896.00
2022-11-29T06:46:03.853Z,100892.19
2022-11-29T06:48:39.908Z,100895.81
2022-11-29T06:51:10.682Z,100908.06
2022-11-29T06:53:44.996Z,100903.06
2022-11-29T06:56:21.342Z,100904.84
2022-11-29T06:58:55.554Z,100906.13
2022-11-29T07:01:35.610Z,100906.88
2022-11-29T07:04:23.052Z,100913.31
2022-11-29T07:06:49.914Z,100914.56
2022-11-29T07:09:18.894Z,100915.94
2022-11-29T07:11:46.825Z,100924.69
2022-11-29T07:14:13.755Z,100928.88
2022-11-29T07:16:53.155Z,100932.69
2022-11-29T07:19:30.852Z,100930.25
2022-11-29T07:22:05.155Z,100935.72
2022-11-29T07:24:47.588Z,100933.19
2022-11-29T07:27:19.802Z,100944.53
2022-11-29T07:30:02.646Z,100943.03
2022-11-29T07:32:42.093Z,100946.28
2022-11-29T07:35:16.967Z,100949.28
2022-11-29T07:37:56.985Z,100952.13
2022-11-29T07:40:35.931Z,100952.13
2022-11-29T07:43:22.388Z,100958.63
2022-11-29T07:45:50.307Z,100955.25
2022-11-29T07:48:17.432Z,100959.69
2022-11-29T07:50:45.444Z,100956.25
2022-11-29T07:53:16.151Z,100962.31
2022-11-29T07:55:42.912Z,100968.13
2022-11-29T07:58:10.989Z,100972.00
2022-11-29T08:00:37.519Z,100967.19
2022-11-29T08:03:04.581Z,100971.13
2022-11-29T08:05:31.323Z,100979.63
2022-11-29T08:07:59.747Z,100987.38
2022-11-29T08:10:26.386Z,100979.97
2022-11-29T08:12:53.116Z,100981.25
2022-11-29T08:15:22.187Z,100982.78
2022-11-29T08:17:49.235Z,100988.88
2022-11-29T08:20:16.219Z,100985.59
2022-11-29T08:22:43.028Z,100983.69
2022-11-29T08:25:11.367Z,100989.31
2022-11-29T08:27:38.217Z,100989.28
2022-11-29T08:30:06.481Z,100992.00
2022-11-29T08:32:33.627Z,100987.53
2022-11-29T08:35:00.117Z,100984.78
2022-11-29T08:37:26.560Z,100992.66
2022-11-29T08:39:52.982Z,100986.66
2022-11-29T08:42:20.764Z,100990.31
2022-11-29T08:44:47.393Z,100992.28
2022-11-29T08:47:14.027Z,101000.91
2022-11-29T08:49:40.517Z,101000.22
2022-11-29T08:52:06.926Z,100999.72
2022-11-29T08:54:33.322Z,101003.59
2022-11-29T08:57:37.430Z,101008.25
2022-11-29T08:59:47.418Z,101005.50
2022-11-29T09:02:13.909Z,101010.38
2022-11-29T09:04:40.322Z,101013.53
2022-11-29T09:07:06.839Z,101015.69
2022-11-29T09:09:33.409Z,101025.38
2022-11-29T09:11:59.795Z,101017.16
2022-11-29T09:14:26.575Z,101028.59
2022-11-29T09:16:54.416Z,101021.41
2022-11-29T09:19:20.864Z,101028.84
2022-11-29T09:21:47.276Z,101023.72
2022-11-29T09:24:13.962Z,101026.00
2022-11-29T09:26:40.350Z,101035.16
2022-11-29T09:29:06.959Z,101034.63
2022-11-29T09:31:34.328Z,101043.06
2022-11-29T09:34:02.208Z,101038.44
2022-11-29T09:36:29.643Z,101032.38
2022-11-29T09:38:56.623Z,101036.91
2022-11-29T09:41:38.568Z,101043.97
2022-11-29T09:44:14.414Z,101037.03
2022-11-29T09:46:55.826Z,101043.06
2022-11-29T09:49:50.120Z,101055.38
2022-11-29T09:52:26.535Z,101051.25
2022-11-29T09:55:01.398Z,101059.41
2022-11-29T09:57:29.479Z,101068.84
2022-11-29T09:59:59.086Z,101067.72
2022-11-29T10:02:36.283Z,101067.06
2022-11-29T10:05:09.866Z,101054.84
2022-11-29T10:07:42.781Z,101058.88
2022-11-29T10:10:16.965Z,101058.53
2022-11-29T10:12:48.755Z,101054.25
2022-11-29T10:15:19.681Z,101063.44
2022-11-29T10:17:53.186Z,101058.19
2022-11-29T10:20:24.226Z,101063.75
2022-11-29T10:22:55.233Z,101064.63
2022-11-29T10:25:25.644Z,101058.38
2022-11-29T10:27:53.234Z,101051.63
2022-11-29T10:30:21.369Z,101055.28
2022-11-29T10:32:51.812Z,101065.31
2022-11-29T10:35:21.577Z,101054.25
2022-11-29T10:38:14.479Z,101057.91
2022-11-29T10:40:38.998Z,101062.50
2022-11-29T10:43:05.485Z,101065.91
2022-11-29T10:45:34.742Z,101058.22
2022-11-29T10:48:04.669Z,101060.53
2022-11-29T10:50:35.224Z,101067.94
2022-11-29T10:53:05.579Z,101066.97
2022-11-29T10:55:39.975Z,101064.06
2022-11-29T10:58:15.791Z,101068.13
2022-11-29T11:00:50.279Z,101063.56
2022-11-29T11:03:24.276Z,101064.69
2022-11-29T11:06:01.690Z,101063.13
2022-11-29T11:08:29.422Z,101067.75
2022-11-29T11:11:01.240Z,101057.53
2022-11-29T11:13:30.890Z,101066.47
2022-11-29T11:15:59.319Z,101059.53
2022-11-29T11:18:27.132Z,101060.31
2022-11-29T11:20:56.506Z,101065.41
2022-11-29T11:23:26.765Z,101066.31
2022-11-29T11:25:59.001Z,101063.00
2022-11-29T11:28:28.141Z,101065.66
2022-11-29T11:30:57.182Z,101071.06
2022-11-29T11:33:26.774Z,101063.88
2022-11-29T11:36:07.385Z,101070.13
2022-11-29T11:38:36.640Z,101073.84
2022-11-29T11:41:07.319Z,101069.44
2022-11-29T11:43:34.413Z,101074.53
2022-11-29T11:46:01.026Z,101070.09
2022-11-29T11:48:27.821Z,101072.63
2022-11-29T11:50:55.973Z,101077.72
2022-11-29T11:53:24.943Z,101079.97
2022-11-29T11:55:59.178Z,101074.13
2022-11-29T11:58:28.713Z,101081.66
2022-11-29T12:01:05.261Z,101086.41
2022-11-29T12:03:45.386Z,101077.13
2022-11-29T12:06:39.302Z,101083.22
2022-11-29T12:09:12.266Z,101072.78
2022-11-29T12:11:47.723Z,101087.91
2022-11-29T12:14:23.306Z,101083.78
2022-11-29T12:16:55.119Z,101094.97
2022-11-29T12:19:24.961Z,101095.31
2022-11-29T12:21:58.417Z,101097.44
2022-11-29T12:24:30.258Z,101110.31
2022-11-29T12:27:03.971Z,101107.84
2022-11-29T12:29:32.157Z,101103.94
2022-11-29T12:32:19.596Z,101100.47
2022-11-29T12:35:00.340Z,101106.63
2022-11-29T12:37:35.563Z,101111.34
2022-11-29T12:40:06.413Z,101110.31
2022-11-29T12:42:44.447Z,101104.19
2022-11-29T12:45:34.332Z,101109.09
2022-11-29T12:48:09.500Z,101114.88
2022-11-29T12:50:45.283Z,101104.31
2022-11-29T12:53:27.725Z,101106.81
2022-11-29T12:56:04.759Z,101114.00
2022-11-29T12:58:45.880Z,101113.13
2022-11-29T13:01:23.046Z,101118.22
2022-11-29T13:03:58.558Z,101116.59
2022-11-29T13:06:31.414Z,101116.72
2022-11-29T13:09:28.059Z,101114.53
2022-11-29T13:11:58.221Z,101111.75
2022-11-29T13:14:42.694Z,101116.25
2022-11-29T13:17:25.894Z,101118.59
2022-11-29T13:19:57.360Z,101124.56
2022-11-29T13:22:28.711Z,101113.31
2022-11-29T13:24:59.019Z,101121.06
2022-11-29T13:27:29.779Z,101120.75
2022-11-29T13:30:00.307Z,101124.53
2022-11-29T13:32:35.927Z,101131.09
2022-11-29T13:35:11.675Z,101125.97
2022-11-29T13:37:45.072Z,101128.00
2022-11-29T13:40:22.598Z,101130.97
2022-11-29T13:42:57.870Z,101130.41
2022-11-29T13:45:34.094Z,101142.97
2022-11-29T13:48:24.951Z,101143.13
2022-11-29T13:50:55.208Z,101146.47
2022-11-29T13:53:23.823Z,101143.66
2022-11-29T13:55:55.164Z,101146.78
2022-11-29T13:58:34.968Z,101156.25
2022-11-29T14:01:06.946Z,101159.06
2022-11-29T14:03:36.282Z,101157.88
2022-11-29T14:06:13.362Z,101160.09
2022-11-29T14:09:17.149Z,101160.28
2022-11-29T14:11:36.096Z,101160.88
2022-11-29T14:14:05.866Z,101165.34
2022-11-29T14:16:38.115Z,101164.91
2022-11-29T14:19:19.860Z,101166.84
2022-11-29T14:22:15.741Z,101160.00
2022-11-29T14:24:43.410Z,101167.66
2022-11-29T14:27:47.457Z,101159.97
2022-11-29T14:30:49.170Z,101167.78
2022-11-29T14:33:29.152Z,101172.94
2022-11-29T14:36:19.803Z,101180.06
2022-11-29T14:38:51.985Z,101167.75
2022-11-29T14:41:28.585Z,101165.66
2022-11-29T14:44:15.584Z,101170.56
2022-11-29T14:46:42.669Z,101171.47
2022-11-29T14:49:22.257Z,101181.13
2022-11-29T14:52:16.057Z,101174.16
2022-11-29T14:54:54.680Z,101173.97
2022-11-29T14:57:53.339Z,101174.59
2022-11-29T15:00:21.550Z,101184.63
2022-11-29T15:02:50.532Z,101176.56
2022-11-29T15:05:22.153Z,101186.78
2022-11-29T15:07:56.562Z,101185.69
2022-11-29T15:10:28.135Z,101192.53
2022-11-29T15:12:55.652Z,101183.25
2022-11-29T15:15:40.666Z,101189.06
2022-11-29T15:18:30.152Z,101193.75
2022-11-29T15:21:14.639Z,101191.00
2022-11-29T15:23:41.887Z,101197.06
2022-11-29T15:26:17.008Z,101189.41
2022-11-29T15:28:43.710Z,101191.88
2022-11-29T15:31:13.039Z,101194.16
2022-11-29T15:33:41.679Z,101203.81
2022-11-29T15:36:15.900Z,101194.19
2022-11-29T15:38:44.104Z,101207.91
2022-11-29T15:41:22.024Z,101200.16
2022-11-29T15:43:52.932Z,101206.53
2022-11-29T15:46:20.548Z,101204.59
2022-11-29T15:48:47.000Z,101208.38
2022-11-29T15:51:24.124Z,101200.75
2022-11-29T15:54:11.247Z,101212.78
2022-11-29T15:56:44.854Z,101202.44
2022-11-29T15:59:18.651Z,101210.59
2022-11-29T16:01:49.034Z,101212.00
2022-11-29T16:04:20.005Z,101207.25
2022-11-29T16:06:49.541Z,101195.63
2022-11-29T16:09:32.431Z,101204.28
2022-11-29T16:12:01.126Z,101211.44
2022-11-29T16:14:27.694Z,101210.31
2022-11-29T16:16:56.956Z,101215.63
2022-11-29T16:19:29.803Z,101217.81
2022-11-29T16:22:13.647Z,101224.44
2022-11-29T16:24:46.267Z,101220.22
2022-11-29T16:27:13.227Z,101219.94
2022-11-29T16:29:43.653Z,101230.84
2022-11-29T16:32:20.243Z,101231.13
2022-11-29T16:34:47.144Z,101226.25
2022-11-29T16:37:18.092Z,101238.25
2022-11-29T16:39:46.772Z,101241.00
2022-11-29T16:42:20.627Z,101239.16
2022-11-29T16:45:02.837Z,101242.19
2022-11-29T16:47:30.730Z,101243.41
2022-11-29T16:50:13.145Z,101251.22
2022-11-29T16:52:40.931Z,101247.16
2022-11-29T16:55:08.251Z,101242.34
2022-11-29T16:57:35.749Z,101250.78
2022-11-29T17:00:08.967Z,101253.06
2022-11-29T17:02:35.410Z,101243.63
2022-11-29T17:05:01.821Z,101258.59
2022-11-29T17:07:30.929Z,101254.03
2022-11-29T17:09:59.538Z,101259.56
2022-11-29T17:12:26.026Z,101260.38
2022-11-29T17:14:52.428Z,101254.59
2022-11-29T17:17:19.363Z,101259.09
2022-11-29T17:19:45.823Z,101265.69
2022-11-29T17:22:12.559Z,101264.47
2022-11-29T17:24:42.328Z,101275.16
2022-11-29T17:27:13.976Z,101271.84
2022-11-29T17:29:40.418Z,101278.09
2022-11-29T17:32:06.904Z,101277.66
2022-11-29T17:34:33.462Z,101277.78
2022-11-29T17:36:59.926Z,101278.81
2022-11-29T17:39:26.415Z,101283.34
2022-11-29T17:41:52.875Z,101283.91
2022-11-29T17:44:20.639Z,101284.69
2022-11-29T17:46:47.063Z,101283.19
2022-11-29T17:49:13.488Z,101294.81
2022-11-29T17:51:51.639Z,101291.69
2022-11-29T17:54:18.476Z,101291.50
2022-11-29T17:56:45.151Z,101296.03
2022-11-29T17:59:11.602Z,101292.53
2022-11-29T18:01:39.526Z,101301.44
2022-11-29T18:04:06.712Z,101297.38
2022-11-29T18:06:35.458Z,101299.84
2022-11-29T18:09:03.578Z,101299.03
2022-11-29T18:11:37.515Z,101303.38
2022-11-29T18:14:10.755Z,101296.69
2022-11-29T18:16:38.657Z,101301.66
2022-11-29T18:19:07.500Z,101307.16
2022-11-29T18:21:34.733Z,101302.69
2022-11-29T18:24:03.173Z,101302.94
2022-11-29T18:26:30.827Z,101303.38
2022-11-29T18:28:58.769Z,101306.03
2022-11-29T18:31:28.164Z,101307.72
2022-11-29T18:33:58.054Z,101307.50
2022-11-29T18:36:27.877Z,101306.69
2022-11-29T18:38:56.373Z,101301.38
2022-11-29T18:41:23.470Z,101305.09
2022-11-29T18:43:56.828Z,101300.38
2022-11-29T18:46:23.785Z,101308.75
2022-11-29T18:48:50.297Z,101307.63
2022-11-29T18:51:20.069Z,101301.38
2022-11-29T18:53:46.810Z,101305.41
2022-11-29T18:56:15.509Z,101311.63
2022-11-29T18:58:42.447Z,101309.03
2022-11-29T19:01:10.543Z,101311.84
2022-11-29T19:03:38.468Z,101307.31
2022-11-29T19:06:06.739Z,101318.19
2022-11-29T19:08:34.630Z,101315.81
2022-11-29T19:11:04.373Z,101320.22
2022-11-29T19:13:30.825Z,101314.56
2022-11-29T19:15:57.299Z,101319.78
2022-11-29T19:18:23.769Z,101314.91
2022-11-29T19:20:50.535Z,101317.34
2022-11-29T19:23:16.963Z,101322.69
2022-11-29T19:25:44.717Z,101321.00
2022-11-29T19:28:14.088Z,101319.75
2022-11-29T19:30:41.008Z,101314.66
2022-11-29T19:33:07.463Z,101327.50
2022-11-29T19:35:34.797Z,101315.38
2022-11-29T19:38:01.224Z,101322.84
2022-11-29T19:40:27.626Z,101317.22
2022-11-29T19:42:55.397Z,101315.84
2022-11-29T19:45:22.115Z,101322.63
2022-11-29T19:47:48.529Z,101316.06
2022-11-29T19:50:15.183Z,101323.91
2022-11-29T19:52:41.634Z,101320.53
2022-11-29T19:55:08.936Z,101322.34
2022-11-29T19:57:35.353Z,101319.03
2022-11-29T20:00:03.645Z,101332.34
2022-11-29T20:02:30.117Z,101336.25
2022-11-29T20:04:56.767Z,101337.03
2022-11-29T20:07:23.395Z,101338.75
2022-11-29T20:09:49.844Z,101335.06
2022-11-29T20:12:16.330Z,101338.56
2022-11-29T20:14:42.767Z,101337.31
2022-11-29T20:17:10.511Z,101336.88
2022-11-29T20:19:36.956Z,101341.03
2022-11-29T20:22:03.464Z,101336.50
2022-11-29T20:24:34.885Z,101345.56
2022-11-29T20:27:04.878Z,101336.06
2022-11-29T20:29:31.325Z,101336.75
2022-11-29T20:31:57.891Z,101342.91
2022-11-29T20:34:26.138Z,101339.47
2022-11-29T20:37:29.956Z,101347.63
2022-11-29T20:39:59.936Z,101340.16
2022-11-29T20:42:46.646Z,101339.38
2022-11-29T20:45:14.715Z,101341.16
2022-11-29T20:47:48.558Z,101352.97
2022-11-29T20:50:22.982Z,101351.94
2022-11-29T20:52:58.183Z,101354.94
2022-11-29T20:55:24.817Z,101347.56
2022-11-29T20:57:51.342Z,101347.19
2022-11-29T21:00:18.333Z,101355.56
2022-11-29T21:02:44.785Z,101360.69
2022-11-29T21:05:11.234Z,101361.69
2022-11-29T21:07:39.023Z,101357.81
2022-11-29T21:10:06.883Z,101355.56
2022-11-29T21:12:33.845Z,101355.56
2022-11-29T21:15:00.775Z,101348.72
2022-11-29T21:17:33.356Z,101349.50
2022-11-29T21:20:00.769Z,101343.53
2022-11-29T21:22:37.687Z,101349.28
2022-11-29T21:25:15.075Z,101349.03
2022-11-29T21:27:42.113Z,101353.41
2022-11-29T21:30:18.021Z,101353.66
2022-11-29T21:32:45.199Z,101353.59
2022-11-29T21:35:11.850Z,101349.81
2022-11-29T21:37:38.652Z,101354.00
2022-11-29T21:40:08.323Z,101364.03
2022-11-29T21:42:34.880Z,101347.06
2022-11-29T21:45:01.571Z,101355.09
2022-11-29T21:47:28.013Z,101355.91
2022-11-29T21:49:54.410Z,101357.25
2022-11-29T21:52:22.864Z,101363.19
2022-11-29T21:54:49.770Z,101361.03
2022-11-29T21:57:17.531Z,101366.03
2022-11-29T21:59:43.953Z,101373.63
2022-11-29T22:02:10.526Z,101376.28
2022-11-29T22:04:37.035Z,101372.34
2022-11-29T22:07:03.442Z,101369.91
2022-11-29T22:09:29.838Z,101370.47
2022-11-29T22:11:56.376Z,101371.50
2022-11-29T22:14:24.273Z,101369.44
2022-11-29T22:16:52.474Z,101370.81
2022-11-29T22:19:20.565Z,101375.47
2022-11-29T22:21:49.266Z,101380.75
2022-11-29T22:24:17.217Z,101379.47
2022-11-29T22:26:44.114Z,101374.00
2022-11-29T22:29:10.818Z,101385.19
2022-11-29T22:31:38.898Z,101382.75
2022-11-29T22:34:05.388Z,101381.56
2022-11-29T22:36:32.123Z,101388.53
2022-11-29T22:38:58.702Z,101388.88
2022-11-29T22:41:25.261Z,101385.31
2022-11-29T22:43:51.728Z,101385.50
2022-11-29T22:46:20.159Z,101390.81
2022-11-29T22:48:49.493Z,101384.75
2022-11-29T22:51:17.894Z,101386.19
2022-11-29T22:53:49.232Z,101383.38
2022-11-29T22:56:17.027Z,101391.94
2022-11-29T22:58:43.671Z,101384.28
2022-11-29T23:01:12.330Z,101390.69
2022-11-29T23:03:42.265Z,101381.25
2022-11-29T23:06:12.258Z,101387.38
2022-11-29T23:08:39.921Z,101387.41
2022-11-29T23:11:08.578Z,101390.56
2022-11-29T23:13:36.771Z,101396.56
2022-11-29T23:16:05.382Z,101387.81
2022-11-29T23:18:32.302Z,101389.84
2022-11-29T23:21:02.006Z,101404.56
2022-11-29T23:23:30.363Z,101400.53
2022-11-29T23:25:57.128Z,101395.53
2022-11-29T23:28:23.997Z,101402.78
2022-11-29T23:30:50.633Z,101397.88
2022-11-29T23:33:17.278Z,101395.13
2022-11-29T23:35:43.862Z,101399.09
2022-11-29T23:38:10.279Z,101398.09
2022-11-29T23:40:38.020Z,101399.66
2022-11-29T23:43:04.444Z,101394.22
2022-11-29T23:45:30.929Z,101392.66
2022-11-29T23:47:57.693Z,101393.06
2022-11-29T23:50:24.531Z,101390.16
2022-11-29T23:52:55.203Z,101385.66
2022-11-29T23:55:22.731Z,101379.13
2022-11-29T23:57:51.210Z,101380.03
